createdAt,value
2022-08-01T00:02:09.646Z,27.59
2022-08-01T00:04:40.898Z,27.58
2022-08-01T00:07:09.995Z,27.57
2022-08-01T00:09:38.551Z,27.55
2022-08-01T00:12:07.856Z,27.53
2022-08-01T00:14:37.988Z,27.54
2022-08-01T00:17:08.014Z,27.52
2022-08-01T00:19:37.172Z,27.51
2022-08-01T00:22:06.388Z,27.49
2022-08-01T00:24:35.351Z,27.48
2022-08-01T00:27:03.892Z,27.49
2022-08-01T00:30:10.989Z,27.50
2022-08-01T00:32:22.772Z,27.49
2022-08-01T00:34:51.356Z,27.47
2022-08-01T00:37:20.342Z,27.47
2022-08-01T00:39:48.887Z,27.47
2022-08-01T00:42:17.412Z,27.45
2022-08-01T00:44:46.878Z,27.43
2022-08-01T00:47:15.362Z,27.42
2022-08-01T00:49:45.549Z,27.43
2022-08-01T00:52:14.373Z,27.42
2022-08-01T00:54:43.062Z,27.39
2022-08-01T00:57:12.239Z,27.35
2022-08-01T00:59:43.818Z,27.34
2022-08-01T01:02:14.825Z,27.35
2022-08-01T01:04:45.899Z,27.33
2022-08-01T01:07:28.603Z,27.32
2022-08-01T01:10:03.221Z,27.29
2022-08-01T01:12:41.834Z,27.30
2022-08-01T01:15:17.944Z,27.31
2022-08-01T01:17:54.391Z,27.32
2022-08-01T01:20:34.618Z,27.32
2022-08-01T01:23:23.717Z,27.31
2022-08-01T01:26:12.434Z,27.31
2022-08-01T01:29:04.630Z,27.30
2022-08-01T01:31:41.212Z,27.32
2022-08-01T01:34:11.941Z,27.31
2022-08-01T01:36:42.336Z,27.31
2022-08-01T01:39:11.047Z,27.30
2022-08-01T01:41:40.999Z,27.31
2022-08-01T01:44:12.853Z,27.32
2022-08-01T01:46:43.387Z,27.34
2022-08-01T01:49:13.155Z,27.33
2022-08-01T01:51:57.456Z,27.34
2022-08-01T01:54:36.195Z,27.32
2022-08-01T01:57:06.890Z,27.32
2022-08-01T01:59:39.995Z,27.30
2022-08-01T02:02:10.299Z,27.28
2022-08-01T02:04:43.592Z,27.28
2022-08-01T02:07:15.761Z,27.26
2022-08-01T02:09:46.046Z,27.26
2022-08-01T02:12:16.134Z,27.25
2022-08-01T02:14:48.178Z,27.24
2022-08-01T02:17:21.213Z,27.24
2022-08-01T02:19:50.348Z,27.24
2022-08-01T02:22:24.303Z,27.26
2022-08-01T02:25:02.302Z,27.26
2022-08-01T02:27:36.769Z,27.26
2022-08-01T02:30:09.988Z,27.24
2022-08-01T02:32:44.378Z,27.23
2022-08-01T02:35:25.692Z,27.20
2022-08-01T02:37:55.386Z,27.18
2022-08-01T02:40:24.901Z,27.17
2022-08-01T02:42:57.168Z,27.16
2022-08-01T02:45:29.638Z,27.16
2022-08-01T02:48:03.974Z,27.15
2022-08-01T02:50:34.344Z,27.15
2022-08-01T02:53:04.057Z,27.11
2022-08-01T02:55:36.393Z,27.11
2022-08-01T02:58:06.248Z,27.12
2022-08-01T03:00:37.101Z,27.11
2022-08-01T03:03:09.149Z,27.14
2022-08-01T03:05:40.669Z,27.14
2022-08-01T03:08:14.520Z,27.14
2022-08-01T03:10:46.861Z,27.15
2022-08-01T03:13:16.849Z,27.16
2022-08-01T03:15:47.899Z,27.18
2022-08-01T03:18:18.279Z,27.18
2022-08-01T03:20:48.761Z,27.17
2022-08-01T03:23:19.216Z,27.18
2022-08-01T03:25:48.977Z,27.18
2022-08-01T03:28:19.076Z,27.18
2022-08-01T03:30:50.816Z,27.18
2022-08-01T03:33:19.433Z,27.19
2022-08-01T03:35:52.924Z,27.18
2022-08-01T03:38:24.780Z,27.15
2022-08-01T03:40:58.804Z,27.13
2022-08-01T03:43:34.270Z,27.14
2022-08-01T03:46:09.548Z,27.11
2022-08-01T03:48:42.241Z,27.13
2022-08-01T03:51:12.115Z,27.13
2022-08-01T03:53:43.656Z,27.14
2022-08-01T03:56:13.593Z,27.15
2022-08-01T03:58:43.640Z,27.14
2022-08-01T04:01:15.883Z,27.14
2022-08-01T04:03:45.218Z,27.16
2022-08-01T04:06:15.098Z,27.15
2022-08-01T04:08:43.899Z,27.16
2022-08-01T04:11:13.291Z,27.16
2022-08-01T04:13:44.453Z,27.15
2022-08-01T04:16:14.843Z,27.16
2022-08-01T04:18:43.344Z,27.15
2022-08-01T04:21:11.879Z,27.15
2022-08-01T04:23:43.854Z,27.14
2022-08-01T04:26:15.025Z,27.13
2022-08-01T04:28:45.778Z,27.12
2022-08-01T04:31:18.830Z,27.11
2022-08-01T04:33:51.751Z,27.13
2022-08-01T04:36:25.393Z,27.13
2022-08-01T04:39:00.304Z,27.12
2022-08-01T04:41:30.189Z,27.13
2022-08-01T04:44:00.460Z,27.13
2022-08-01T04:46:31.945Z,27.15
2022-08-01T04:49:01.508Z,27.17
2022-08-01T04:51:30.083Z,27.17
2022-08-01T04:54:20.775Z,27.18
2022-08-01T04:56:51.404Z,27.18
2022-08-01T04:59:37.734Z,27.17
2022-08-01T05:02:08.306Z,27.17
2022-08-01T05:04:37.796Z,27.15
2022-08-01T05:07:06.486Z,27.14
2022-08-01T05:09:36.903Z,27.15
2022-08-01T05:12:07.948Z,27.17
2022-08-01T05:14:37.491Z,27.16
2022-08-01T05:17:10.029Z,27.19
2022-08-01T05:19:40.575Z,27.17
2022-08-01T05:22:11.198Z,27.16
2022-08-01T05:24:41.734Z,27.16
2022-08-01T05:27:11.698Z,27.14
2022-08-01T05:29:44.719Z,27.10
2022-08-01T05:32:14.922Z,27.11
2022-08-01T05:34:44.023Z,27.11
2022-08-01T05:37:12.634Z,27.13
2022-08-01T05:39:41.633Z,27.14
2022-08-01T05:42:10.135Z,27.11
2022-08-01T05:44:38.703Z,27.10
2022-08-01T05:47:07.482Z,27.08
2022-08-01T05:49:37.529Z,27.04
2022-08-01T05:52:06.677Z,27.04
2022-08-01T05:54:35.460Z,27.03
2022-08-01T05:57:04.236Z,27.03
2022-08-01T05:59:33.243Z,27.04
2022-08-01T06:02:03.231Z,27.04
2022-08-01T06:04:32.304Z,27.03
2022-08-01T06:07:02.312Z,27.04
2022-08-01T06:09:31.760Z,27.04
2022-08-01T06:12:00.397Z,27.03
2022-08-01T06:14:29.051Z,27.01
2022-08-01T06:16:57.569Z,27.00
2022-08-01T06:19:27.310Z,27.01
2022-08-01T06:21:55.732Z,27.02
2022-08-01T06:24:28.166Z,27.01
2022-08-01T06:26:56.718Z,27.00
2022-08-01T06:29:25.526Z,26.97
2022-08-01T06:31:54.085Z,26.97
2022-08-01T06:34:23.281Z,26.96
2022-08-01T06:36:51.820Z,26.95
2022-08-01T06:39:20.392Z,26.94
2022-08-01T06:41:50.858Z,26.94
2022-08-01T06:44:19.432Z,26.92
2022-08-01T06:46:47.953Z,26.91
2022-08-01T06:49:16.504Z,26.92
2022-08-01T06:51:45.127Z,26.95
2022-08-01T06:54:13.680Z,26.97
2022-08-01T06:56:42.230Z,27.02
2022-08-01T06:59:12.378Z,27.03
2022-08-01T07:01:41.009Z,27.02
2022-08-01T07:04:09.549Z,27.02
2022-08-01T07:06:38.140Z,27.04
2022-08-01T07:09:12.183Z,27.07
2022-08-01T07:11:42.986Z,27.08
2022-08-01T07:14:12.843Z,27.10
2022-08-01T07:16:41.398Z,27.10
2022-08-01T07:19:10.045Z,27.12
2022-08-01T07:21:42.176Z,27.16
2022-08-01T07:24:16.397Z,27.19
2022-08-01T07:26:53.073Z,27.20
2022-08-01T07:29:25.653Z,27.20
2022-08-01T07:31:55.816Z,27.18
2022-08-01T07:34:25.032Z,27.18
2022-08-01T07:36:54.122Z,27.18
2022-08-01T07:39:23.099Z,27.19
2022-08-01T07:42:13.371Z,27.20
2022-08-01T07:44:42.409Z,27.20
2022-08-01T07:47:10.920Z,27.21
2022-08-01T07:49:41.020Z,27.24
2022-08-01T07:52:10.456Z,27.26
2022-08-01T07:54:39.254Z,27.25
2022-08-01T07:57:08.167Z,27.26
2022-08-01T07:59:37.054Z,27.31
2022-08-01T08:02:07.263Z,27.35
2022-08-01T08:04:36.105Z,27.38
2022-08-01T08:07:05.133Z,27.44
2022-08-01T08:09:37.325Z,27.47
2022-08-01T08:12:08.864Z,27.52
2022-08-01T08:14:38.242Z,27.54
2022-08-01T08:17:08.633Z,27.54
2022-08-01T08:19:39.661Z,27.54
2022-08-01T08:22:09.615Z,27.56
2022-08-01T08:24:46.627Z,27.59
2022-08-01T08:27:16.248Z,27.59
2022-08-01T08:29:44.906Z,27.59
2022-08-01T08:32:15.141Z,27.59
2022-08-01T08:34:43.894Z,27.55
2022-08-01T08:37:13.844Z,27.52
2022-08-01T08:39:42.880Z,27.51
2022-08-01T08:42:13.146Z,27.52
2022-08-01T08:44:44.482Z,27.57
2022-08-01T08:47:20.330Z,27.64
2022-08-01T08:49:51.295Z,27.68
2022-08-01T08:52:22.396Z,27.71
2022-08-01T08:54:52.658Z,27.75
2022-08-01T08:57:23.090Z,27.77
2022-08-01T08:59:55.172Z,27.77
2022-08-01T09:02:25.407Z,27.79
2022-08-01T09:04:54.533Z,27.81
2022-08-01T09:07:23.924Z,27.81
2022-08-01T09:09:52.861Z,27.81
2022-08-01T09:12:22.435Z,27.81
2022-08-01T09:14:54.647Z,27.80
2022-08-01T09:17:25.407Z,27.82
2022-08-01T09:19:59.112Z,27.83
2022-08-01T09:22:28.693Z,27.86
2022-08-01T09:25:03.904Z,27.93
2022-08-01T09:27:44.336Z,27.93
2022-08-01T09:30:23.353Z,27.90
2022-08-01T09:33:06.369Z,27.89
2022-08-01T09:35:59.647Z,27.85
2022-08-01T09:38:28.900Z,27.82
2022-08-01T09:41:01.512Z,27.83
2022-08-01T09:43:32.955Z,27.87
2022-08-01T09:46:07.497Z,27.88
2022-08-01T09:48:59.775Z,27.90
2022-08-01T09:52:00.035Z,27.96
2022-08-01T09:54:33.506Z,28.00
2022-08-01T09:57:15.808Z,28.02
2022-08-01T09:59:58.265Z,28.02
2022-08-01T10:02:34.113Z,28.03
2022-08-01T10:05:08.827Z,28.07
2022-08-01T10:07:42.850Z,28.13
2022-08-01T10:10:15.219Z,28.18
2022-08-01T10:12:45.490Z,28.21
2022-08-01T10:15:18.429Z,28.28
2022-08-01T10:17:57.243Z,28.34
2022-08-01T10:20:31.424Z,28.39
2022-08-01T10:23:06.182Z,28.46
2022-08-01T10:25:43.107Z,28.53
2022-08-01T10:28:21.477Z,28.59
2022-08-01T10:30:53.807Z,28.60
2022-08-01T10:33:50.486Z,28.61
2022-08-01T10:36:15.999Z,28.62
2022-08-01T10:38:45.606Z,28.63
2022-08-01T10:41:17.160Z,28.65
2022-08-01T10:43:46.908Z,28.64
2022-08-01T10:46:16.079Z,28.63
2022-08-01T10:48:53.511Z,28.62
2022-08-01T10:51:51.414Z,28.60
2022-08-01T10:54:14.845Z,28.60
2022-08-01T10:56:48.810Z,28.60
2022-08-01T10:59:49.900Z,28.58
2022-08-01T11:02:12.965Z,28.51
2022-08-01T11:04:56.166Z,28.46
2022-08-01T11:07:45.037Z,28.40
2022-08-01T11:10:25.094Z,28.37
2022-08-01T11:12:55.020Z,28.35
2022-08-01T11:15:29.779Z,28.38
2022-08-01T11:18:02.161Z,28.38
2022-08-01T11:20:34.578Z,28.38
2022-08-01T11:23:36.096Z,28.37
2022-08-01T11:26:29.358Z,28.34
2022-08-01T11:29:21.184Z,28.35
2022-08-01T11:31:52.850Z,28.36
2022-08-01T11:34:21.963Z,28.39
2022-08-01T11:36:59.779Z,28.43
2022-08-01T11:39:29.941Z,28.45
2022-08-01T11:42:21.824Z,28.53
2022-08-01T11:44:52.507Z,28.59
2022-08-01T11:47:47.336Z,28.62
2022-08-01T11:50:35.983Z,28.64
2022-08-01T11:53:07.519Z,28.67
2022-08-01T11:55:37.548Z,28.70
2022-08-01T11:58:21.975Z,28.73
2022-08-01T12:00:53.846Z,28.74
2022-08-01T12:03:33.164Z,28.73
2022-08-01T12:06:03.044Z,28.71
2022-08-01T12:08:35.821Z,28.72
2022-08-01T12:11:07.489Z,28.72
2022-08-01T12:13:44.338Z,28.72
2022-08-01T12:16:13.806Z,28.73
2022-08-01T12:18:43.615Z,28.76
2022-08-01T12:21:12.213Z,28.82
2022-08-01T12:23:40.874Z,28.90
2022-08-01T12:26:28.599Z,28.93
2022-08-01T12:28:59.403Z,28.95
2022-08-01T12:31:34.842Z,29.01
2022-08-01T12:34:28.858Z,29.00
2022-08-01T12:36:59.617Z,29.03
2022-08-01T12:39:34.341Z,29.05
2022-08-01T12:42:07.743Z,29.05
2022-08-01T12:44:36.899Z,29.05
2022-08-01T12:47:08.514Z,29.06
2022-08-01T12:49:38.861Z,29.06
2022-08-01T12:52:13.092Z,29.08
2022-08-01T12:55:10.321Z,29.13
2022-08-01T12:57:43.413Z,29.18
2022-08-01T13:00:16.705Z,29.21
2022-08-01T13:02:47.627Z,29.19
2022-08-01T13:05:17.771Z,29.18
2022-08-01T13:07:50.953Z,29.17
2022-08-01T13:10:29.805Z,29.20
2022-08-01T13:13:00.886Z,29.18
2022-08-01T13:15:35.811Z,29.12
2022-08-01T13:18:28.353Z,29.03
2022-08-01T13:21:17.308Z,28.94
2022-08-01T13:24:04.808Z,28.89
2022-08-01T13:26:45.813Z,28.89
2022-08-01T13:29:17.870Z,28.88
2022-08-01T13:31:47.612Z,28.87
2022-08-01T13:34:17.871Z,28.91
2022-08-01T13:36:49.646Z,28.98
2022-08-01T13:39:36.211Z,29.04
2022-08-01T13:42:05.583Z,29.15
2022-08-01T13:44:35.840Z,29.23
2022-08-01T13:47:15.467Z,29.28
2022-08-01T13:49:46.004Z,29.27
2022-08-01T13:52:14.618Z,29.29
2022-08-01T13:54:43.212Z,29.28
2022-08-01T13:57:11.890Z,29.25
2022-08-01T13:59:41.812Z,29.24
2022-08-01T14:02:10.703Z,29.24
2022-08-01T14:04:39.456Z,29.26
2022-08-01T14:07:11.838Z,29.29
2022-08-01T14:10:04.817Z,29.31
2022-08-01T14:12:32.480Z,29.36
2022-08-01T14:15:03.325Z,29.42
2022-08-01T14:17:32.103Z,29.48
2022-08-01T14:20:07.780Z,29.53
2022-08-01T14:22:37.130Z,29.57
2022-08-01T14:25:06.746Z,29.63
2022-08-01T14:27:37.218Z,29.64
2022-08-01T14:30:09.305Z,29.66
2022-08-01T14:32:38.498Z,29.65
2022-08-01T14:35:09.340Z,29.66
2022-08-01T14:37:38.733Z,29.66
2022-08-01T14:40:10.429Z,29.65
2022-08-01T14:42:39.926Z,29.62
2022-08-01T14:45:11.626Z,29.61
2022-08-01T14:47:41.679Z,29.57
2022-08-01T14:50:13.868Z,29.55
2022-08-01T14:52:43.691Z,29.52
2022-08-01T14:55:14.226Z,29.49
2022-08-01T14:57:43.258Z,29.47
2022-08-01T15:00:14.844Z,29.44
2022-08-01T15:02:44.451Z,29.43
2022-08-01T15:05:13.096Z,29.41
2022-08-01T15:07:51.615Z,29.40
2022-08-01T15:10:22.527Z,29.39
2022-08-01T15:12:51.164Z,29.42
2022-08-01T15:15:22.073Z,29.45
2022-08-01T15:17:52.620Z,29.46
2022-08-01T15:20:21.563Z,29.49
2022-08-01T15:22:50.187Z,29.52
2022-08-01T15:25:19.138Z,29.51
2022-08-01T15:27:47.764Z,29.49
2022-08-01T15:30:16.427Z,29.48
2022-08-01T15:32:46.778Z,29.48
2022-08-01T15:35:20.116Z,29.45
2022-08-01T15:37:48.684Z,29.43
2022-08-01T15:40:17.344Z,29.42
2022-08-01T15:42:47.175Z,29.41
2022-08-01T15:45:44.583Z,29.39
2022-08-01T15:48:09.252Z,29.38
2022-08-01T15:50:39.520Z,29.41
2022-08-01T15:53:08.570Z,29.42
2022-08-01T15:55:38.470Z,29.42
2022-08-01T15:58:07.374Z,29.43
2022-08-01T16:00:38.630Z,29.48
2022-08-01T16:03:10.508Z,29.53
2022-08-01T16:05:43.369Z,29.55
2022-08-01T16:08:13.455Z,29.56
2022-08-01T16:10:42.729Z,29.56
2022-08-01T16:13:11.599Z,29.55
2022-08-01T16:15:40.846Z,29.53
2022-08-01T16:18:14.500Z,29.52
2022-08-01T16:20:45.929Z,29.46
2022-08-01T16:23:15.664Z,29.43
2022-08-01T16:25:45.294Z,29.42
2022-08-01T16:28:14.597Z,29.40
2022-08-01T16:30:50.908Z,29.38
2022-08-01T16:33:45.653Z,29.39
2022-08-01T16:36:21.378Z,29.38
2022-08-01T16:38:51.853Z,29.39
2022-08-01T16:41:20.709Z,29.37
2022-08-01T16:43:53.413Z,29.40
2022-08-01T16:46:25.227Z,29.42
2022-08-01T16:48:55.774Z,29.41
2022-08-01T16:51:24.878Z,29.38
2022-08-01T16:53:53.461Z,29.37
2022-08-01T16:56:22.338Z,29.37
2022-08-01T16:58:51.277Z,29.34
2022-08-01T17:02:01.471Z,29.31
2022-08-01T17:04:10.028Z,29.28
2022-08-01T17:06:38.831Z,29.26
2022-08-01T17:09:09.377Z,29.25
2022-08-01T17:11:39.886Z,29.24
2022-08-01T17:14:08.538Z,29.23
2022-08-01T17:16:37.569Z,29.25
2022-08-01T17:19:06.433Z,29.28
2022-08-01T17:21:41.162Z,29.30
2022-08-01T17:24:10.514Z,29.29
2022-08-01T17:26:43.504Z,29.32
2022-08-01T17:29:12.630Z,29.33
2022-08-01T17:31:41.345Z,29.35
2022-08-01T17:34:09.904Z,29.34
2022-08-01T17:36:39.932Z,29.36
2022-08-01T17:39:09.459Z,29.37
2022-08-01T17:41:38.191Z,29.35
2022-08-01T17:44:07.453Z,29.34
2022-08-01T17:46:37.007Z,29.32
2022-08-01T17:49:06.564Z,29.28
2022-08-01T17:51:35.466Z,29.27
2022-08-01T17:54:06.515Z,29.27
2022-08-01T17:56:40.040Z,29.28
2022-08-01T17:59:17.232Z,29.27
2022-08-01T18:02:00.608Z,29.29
2022-08-01T18:04:48.557Z,29.32
2022-08-01T18:08:01.983Z,29.33
2022-08-01T18:10:47.738Z,29.36
2022-08-01T18:13:40.505Z,29.38
2022-08-01T18:16:45.293Z,29.37
2022-08-01T18:19:51.744Z,29.35
2022-08-01T18:23:15.334Z,29.31
2022-08-01T18:26:27.551Z,29.28
2022-08-01T18:29:47.222Z,29.28
2022-08-01T18:32:39.585Z,29.26
2022-08-01T18:35:52.045Z,29.24
2022-08-01T18:38:35.588Z,29.23
2022-08-01T18:41:14.392Z,29.24
2022-08-01T18:43:43.053Z,29.22
2022-08-01T18:46:11.929Z,29.22
2022-08-01T18:48:40.543Z,29.22
2022-08-01T18:51:11.753Z,29.21
2022-08-01T18:53:41.797Z,29.22
2022-08-01T18:56:12.152Z,29.22
2022-08-01T18:58:42.987Z,29.22
2022-08-01T19:01:11.805Z,29.21
2022-08-01T19:03:42.779Z,29.21
2022-08-01T19:06:11.628Z,29.22
2022-08-01T19:08:40.604Z,29.21
2022-08-01T19:11:09.442Z,29.19
2022-08-01T19:13:38.456Z,29.12
2022-08-01T19:16:08.540Z,29.07
2022-08-01T19:18:38.186Z,29.00
2022-08-01T19:21:07.422Z,28.98
2022-08-01T19:23:53.459Z,28.93
2022-08-01T19:26:25.858Z,28.90
2022-08-01T19:28:59.459Z,28.88
2022-08-01T19:31:30.821Z,28.85
2022-08-01T19:34:02.278Z,28.87
2022-08-01T19:36:33.227Z,28.88
2022-08-01T19:39:03.260Z,28.88
2022-08-01T19:41:33.154Z,28.87
2022-08-01T19:44:03.554Z,28.84
2022-08-01T19:46:33.722Z,28.85
2022-08-01T19:49:02.341Z,28.84
2022-08-01T19:51:34.352Z,28.84
2022-08-01T19:54:07.013Z,28.84
2022-08-01T19:56:40.653Z,28.84
2022-08-01T19:59:09.674Z,28.83
2022-08-01T20:01:39.622Z,28.84
2022-08-01T20:04:08.726Z,28.84
2022-08-01T20:06:37.750Z,28.84
2022-08-01T20:09:06.773Z,28.84
2022-08-01T20:11:36.404Z,28.82
2022-08-01T20:14:05.320Z,28.83
2022-08-01T20:16:34.014Z,28.82
2022-08-01T20:19:05.092Z,28.80
2022-08-01T20:21:35.245Z,28.78
2022-08-01T20:24:05.341Z,28.75
2022-08-01T20:26:35.093Z,28.72
2022-08-01T20:29:05.494Z,28.71
2022-08-01T20:31:44.185Z,28.69
2022-08-01T20:34:18.153Z,28.65
2022-08-01T20:36:54.746Z,28.64
2022-08-01T20:39:26.718Z,28.62
2022-08-01T20:41:59.995Z,28.59
2022-08-01T20:44:31.670Z,28.57
2022-08-01T20:47:02.448Z,28.56
2022-08-01T20:49:33.408Z,28.54
2022-08-01T20:52:10.914Z,28.52
2022-08-01T20:54:42.016Z,28.51
2022-08-01T20:57:17.970Z,28.50
2022-08-01T20:59:56.523Z,28.49
2022-08-01T21:02:42.555Z,28.47
2022-08-01T21:05:25.969Z,28.44
2022-08-01T21:08:04.073Z,28.44
2022-08-01T21:10:34.483Z,28.42
2022-08-01T21:13:06.225Z,28.43
2022-08-01T21:15:40.444Z,28.44
2022-08-01T21:18:38.597Z,28.42
2022-08-01T21:21:13.407Z,28.42
2022-08-01T21:23:51.869Z,28.43
2022-08-01T21:26:23.992Z,28.41
2022-08-01T21:28:56.521Z,28.40
2022-08-01T21:31:27.320Z,28.39
2022-08-01T21:34:10.579Z,28.39
2022-08-01T21:36:43.173Z,28.38
2022-08-01T21:39:12.262Z,28.36
2022-08-01T21:41:56.099Z,28.36
2022-08-01T21:44:32.972Z,28.33
2022-08-01T21:47:02.543Z,28.32
2022-08-01T21:49:31.270Z,28.31
2022-08-01T21:52:08.779Z,28.30
2022-08-01T21:54:49.912Z,28.27
2022-08-01T21:57:29.113Z,28.24
2022-08-01T22:00:09.865Z,28.20
2022-08-01T22:02:43.785Z,28.17
2022-08-01T22:05:14.664Z,28.15
2022-08-01T22:07:49.680Z,28.12
2022-08-01T22:10:21.106Z,28.11
2022-08-01T22:12:50.438Z,28.08
2022-08-01T22:15:23.222Z,28.08
2022-08-01T22:17:52.725Z,28.05
2022-08-01T22:20:23.683Z,28.03
2022-08-01T22:22:55.026Z,28.02
2022-08-01T22:25:24.796Z,28.01
2022-08-01T22:28:08.832Z,28.00
2022-08-01T22:30:42.753Z,27.97
2022-08-01T22:33:16.180Z,27.96
2022-08-01T22:35:47.642Z,27.95
2022-08-01T22:38:19.496Z,27.95
2022-08-01T22:40:51.999Z,27.94
2022-08-01T22:43:30.688Z,27.93
2022-08-01T22:46:25.290Z,27.89
2022-08-01T22:49:09.408Z,27.87
2022-08-01T22:51:54.899Z,27.86
2022-08-01T22:54:36.085Z,27.82
2022-08-01T22:57:13.212Z,27.80
2022-08-01T22:59:49.128Z,27.80
2022-08-01T23:02:19.792Z,27.78
2022-08-01T23:04:50.574Z,27.77
2022-08-01T23:07:24.946Z,27.76
2022-08-01T23:09:57.039Z,27.71
2022-08-01T23:12:27.663Z,27.69
2022-08-01T23:14:58.351Z,27.66
2022-08-01T23:17:29.565Z,27.65
2022-08-01T23:20:00.898Z,27.64
2022-08-01T23:22:33.893Z,27.62
2022-08-01T23:25:07.504Z,27.60
2022-08-01T23:27:51.502Z,27.57
2022-08-01T23:30:31.108Z,27.54
2022-08-01T23:33:00.320Z,27.51
2022-08-01T23:35:29.882Z,27.50
2022-08-01T23:38:02.750Z,27.48
2022-08-01T23:40:34.368Z,27.47
2022-08-01T23:43:05.281Z,27.45
2022-08-01T23:46:03.328Z,27.44
2022-08-01T23:48:25.393Z,27.42
2022-08-01T23:50:54.129Z,27.40
2022-08-01T23:53:22.797Z,27.39
2022-08-01T23:55:53.111Z,27.39
2022-08-01T23:58:22.727Z,27.35
